Aérodrome :







RETROUVEZ-NOUS SUR...

 
LOGIN :

S'inscrire | Disclaimer

   EN    FR    IT 

 









Légende :    VFR   VFR Marginal   IFR   IFR Intensif   IFR Très Intensif
Visi : 
Plafond : 
>= 8 km
>= 3000ft
5 à 8 km
1000 à 3000 ft
1500m à 5 km
500 à 1000 ft
800 à 1500m
200 à 500 ft
< 800m
< 200 ft
Symboles :   Orages  Brouillard  Fortes neiges  Fortes précipitations  Vent > 20 kt






- Altitude de l'aérodrome : 328 ft


KGFL - Floyd Bennett Memorial

DERNIER METAR :
  • 260759Z AUTO 17007KT 1/4SM FG VV002 01/01 A2972 RMK AO2 T00110006

METARs EXPIRÉS :
  • 260753Z AUTO 16006KT 1/2SM FG VV003 01/00 A2972 RMK AO2 SLP072 T00110000
  • 260742Z AUTO 17003KT 1 1/2SM BR OVC003 01/00 A2972 RMK AO2 T00060000
  • 260723Z AUTO 00000KT 3SM BR BKN004 OVC009 01/00 A2972 RMK AO2 T00060000
  • 260701Z AUTO 00000KT 1/2SM FG FEW003 OVC012 01/00 A2972 RMK AO2 T00060000
  • 260639Z AUTO 00000KT 1 3/4SM BR SCT005 OVC010 01/01 A2972 RMK AO2 VIS 1V3 T00110006
  • 260624Z AUTO 00000KT 2SM BR BKN005 OVC011 01/01 A2972 RMK AO2 T00110006
  • 260617Z AUTO 16003KT 2 1/2SM BR SCT005 OVC011 01/01 A2971 RMK AO2 T00110006
  • 260604Z AUTO 00000KT 2SM BR OVC008 01/01 A2972 RMK AO2 T00110006
  • 260553Z AUTO 00000KT 4SM BR OVC008 01/01 A2972 RMK AO2 RAE0457 SLP072 P0000 60029 T00110006 10022 20011 58006
  • 260538Z AUTO 00000KT 10SM BKN005 OVC010 01/01 A2973 RMK AO2 RAE0457 P0000 T00110011
  • 260525Z AUTO 22003KT 10SM SCT005 OVC010 01/01 A2973 RMK AO2 RAE0457 P0000 T00110006

TAF KGFL
Valide du 26 à 07h jusqu'au 27 à 06h UTC


260726Z 2607/2706 00000KT 3SM BR BKN004 OVC009
FM260900 20005KT 1SM BR BKN003
FM261400 19005KT 6SM BR BKN020
FM261700 22010G18KT P6SM BKN035
PROB30 2704/2706 4SM -SHSN OVC040



MET'MAP, la Météo Aéronautique d'un coup d'oeil ! - Copyright ORBIFLY Décembre 2007 - Disclaimer

ORBIFLY MET'MAP TEAM :

Programmation & Développement : Alexandra Zaïnal
Sur une idée originale de : Baudouin d'Aumeries
Assistance à la programmation : Marc-Olivier Méhu
Soutien technique & logistique : Manuel Goepfert

Contact : metmap@orbifly.com




SOURCES & CREDITS :

   NOAA